Latest Coastal Weather Observations for St Helens

IDT60701

Issued at 3:55 pm EDT Sunday 23 November 2014 (issued every 10 minutes, with the page automatically refreshed every 10 minutes)

About coastal observations | Map of coastal stations | Coastal observations for TAS | Marine services | Other Formats
Station Details ID: 092120 Name: ST HELENS AERODROME Lat: -41.34 Lon: 148.28 Height: 48.0 m
Data from the previous 72 hours. | See also: Recent months at St Helens
Date/Time
EDT
Temp

°C
Wind Pressure Rain
since 9am
mm
Weather Cloud Vis
km
Sea
Height
m
Swell
Dir
 
Speed
knots
Gust
knots
hPa Trend Height
m
Period
s
Dir
23/03:30pm 20.8 E 8 14 1008.9 - 0.0 - - - - - - -
23/03:00pm 21.0 E 10 17 1008.9 - 0.0 - - - - - - -
23/02:30pm 20.8 ESE 10 17 1009.1 - 0.0 - - - - - - -
23/02:00pm 21.0 ESE 9 16 1009.2 - 0.0 - - - - - - -
23/01:30pm 20.3 ESE 9 17 1009.3 - 0.0 - - - - - - -
23/01:00pm 20.7 ESE 8 15 1009.5 - 0.0 - - - - - - -
23/12:30pm 19.9 E 10 16 1009.6 - 0.0 - - - - - - -
23/12:00pm 20.8 ESE 10 14 1009.1 - 0.0 - - - - - - -
23/11:30am 21.0 E 9 18 1009.2 - 0.0 - - - - - - -
23/11:00am 21.7 ENE 12 15 1009.2 - 0.0 - - - - - - -
23/10:30am 20.7 ENE 12 16 1008.9 - 0.0 - - - - - - -
23/10:00am 20.4 ENE 10 14 1008.6 - 0.0 - - - - - - -
23/09:30am 20.7 ENE 10 14 1008.5 - 0.0 - - - - - - -
23/09:00am 20.9 E 6 10 1008.1 - 0.0 Fine Mostly clear 25 - - - -
23/08:30am 19.9 ENE 4 8 1007.5 - 0.0 - - - - - - -
23/08:00am 18.9 NNE 3 5 1007.0 - 0.0 - - - - - - -
23/07:30am 16.9 N 3 4 1006.4 - 0.0 - - - - - - -
23/07:00am 15.2 N 2 4 1005.7 - 0.0 - - - - - - -
23/06:30am 15.5 CALM 0 0 1005.3 - 0.0 - - - - - - -
23/06:00am 14.4 WNW 1 4 1004.8 - 0.0 - - - - - - -
23/05:30am 14.9 WNW 3 5 1004.3 - 0.0 - - - - - - -
23/05:00am 14.6 NW 5 7 1004.0 - 0.0 - - - - - - -
23/04:30am 14.1 NW 6 9 1003.7 - 0.0 - - - - - - -
23/04:00am 13.6 NNW 5 9 1003.5 - 0.0 - - - - - - -
23/03:30am 15.8 WNW 5 8 1003.5 - 0.0 - - - - - - -
23/03:00am 13.8 NNW 4 5 1003.4 - 0.0 - - - - - - -
23/02:30am 15.0 NNE 4 5 1003.5 - 0.0 - - - - - - -
23/02:00am 14.3 SSW 3 4 1004.1 - 0.0 - - - - - - -
23/01:30am 15.6 N 4 6 1004.4 - 0.0 - - - - - - -
23/01:00am 15.3 WNW 2 3 1004.4 - 0.0 - - - - - - -
23/12:30am 15.6 NW 4 7 1005.0 - 0.0 - - - - - - -
23/12:00am 15.2 NNW 2 5 1005.6 - 0.0 - - - - - - -
 
Date/Time
EDT
Temp

°C
Wind Pressure Rain
since 9am
mm
Weather Cloud Vis
km
Sea
Height
m
Swell
Dir
 
Speed
knots
Gust
knots
hPa Trend Height
m
Period
s
Dir
22/11:30pm 15.5 NNW 4 7 1005.4 - 0.0 - - - - - - -
22/11:00pm 14.9 CALM 0 0 1006.1 - 0.0 - - - - - - -
22/10:30pm 15.7 NW 5 6 1006.2 - 0.0 - - - - - - -
22/10:00pm 15.9 NNW 6 9 1006.2 - 0.0 - - - - - - -
22/09:30pm 16.0 N 8 11 1006.2 - 0.0 - - - - - - -
22/09:00pm 15.8 NNE 6 9 1006.3 - 0.0 - - - - - - -
22/08:30pm 15.8 NNE 9 14 1006.2 - 0.0 - - - - - - -
22/08:00pm 16.2 N 10 15 1006.1 - 0.0 - - - - - - -
22/07:30pm 16.3 N 11 16 1006.3 - 0.0 - - - - - - -
22/07:00pm 16.7 N 11 18 1006.1 - 0.0 - - - - - - -
22/06:30pm 17.1 N 12 16 1006.2 - 0.0 - - - - - - -
22/06:00pm 18.2 N 11 17 1006.0 - 0.0 - - - - - - -
22/05:30pm 19.3 N 11 17 1006.3 - 0.0 - - - - - - -
22/05:00pm 19.6 N 12 18 1006.7 - 0.0 - - - - - - -
22/04:30pm 19.8 N 13 19 1006.9 - 0.0 - - - - - - -
22/04:00pm 19.5 N 12 20 1007.1 - 0.0 - - - - - - -
22/03:30pm 19.9 N 11 17 1007.3 - 0.0 - - - - - - -
22/03:00pm 23.2 WNW 11 20 1007.7 - 0.0 - - - - - - -
22/02:30pm 20.4 N 13 22 1008.2 - 0.0 - - - - - - -
22/02:00pm 21.9 N 15 21 1007.9 - 0.0 - - - - - - -
22/01:30pm 22.6 NNW 13 22 1008.0 - 0.0 - - - - - - -
22/01:00pm 22.4 NW 10 17 1008.8 - 0.0 - - - - - - -
22/12:30pm 21.6 NNW 10 18 1009.2 - 0.0 - - - - - - -
22/12:00pm 20.1 NW 9 16 1009.4 - 0.0 - - - - - - -
22/11:30am 18.1 NW 9 16 1010.1 - 0.0 - - - - - - -
22/11:00am 17.2 NW 7 12 1009.8 - 0.0 - - - - - - -
22/10:30am 16.0 NNW 5 8 1010.2 - 0.0 - - - - - - -
22/10:00am 14.4 WNW 8 13 1010.6 - 0.0 - - - - - - -
22/09:30am 13.5 NNW 7 11 1010.9 - 0.0 - - - - - - -
22/09:00am 12.8 N 7 11 1011.0 - 2.2 Fine Mostly cloudy 25 - - - -
22/08:30am 12.8 NNW 6 9 1011.2 - 2.2 - - - - - - -
22/08:00am 12.2 NNW 5 7 1011.2 - 2.2 - - - - - - -
22/07:30am 11.2 NNW 5 8 1010.7 - 2.2 - - - - - - -
22/07:00am 10.2 WNW 6 11 1010.9 - 2.2 - - - - - - -
22/06:30am 8.6 NW 4 8 1010.7 - 2.2 - - - - - - -
22/06:00am 8.0 NNW 4 7 1010.2 - 2.2 - - - - - - -
22/05:30am 9.0 NW 4 7 1010.0 - 2.2 - - - - - - -
22/05:00am 8.7 W 3 5 1009.7 - 2.2 - - - - - - -
22/04:30am 8.6 W 1 3 1009.7 - 2.2 - - - - - - -
22/04:00am 8.6 N 7 9 1009.6 - 2.2 - - - - - - -
22/03:30am 9.4 NNW 4 6 1009.8 - 2.2 - - - - - - -
22/03:00am 9.8 WNW 3 6 1010.3 - 2.2 - - - - - - -
22/02:30am 10.0 NNW 2 7 1010.8 - 2.2 - - - - - - -
22/02:00am 9.8 SW 1 4 1011.0 - 2.2 - - - - - - -
22/01:30am 9.8 NNW 6 7 1011.2 - 2.2 - - - - - - -
22/01:00am 10.3 NW 5 7 1011.5 - 2.2 - - - - - - -
22/12:30am 11.2 NW 2 4 1011.4 - 2.2 - - - - - - -
22/12:00am 12.0 NNW 3 4 1011.7 - 2.2 - - - - - - -
 
Date/Time
EDT
Temp

°C
Wind Pressure Rain
since 9am
mm
Weather Cloud Vis
km
Sea
Height
m
Swell
Dir
 
Speed
knots
Gust
knots
hPa Trend Height
m
Period
s
Dir
21/11:30pm 12.4 NNE 3 4 1012.0 - 2.2 - - - - - - -
21/11:00pm 12.6 CALM 0 0 1012.0 - 2.2 - - - - - - -
21/10:30pm 12.6 CALM 0 0 1012.2 - 2.2 - - - - - - -
21/10:00pm 12.8 CALM 0 0 1012.0 - 2.2 - - - - - - -
21/09:30pm 12.9 CALM 0 0 1011.9 - 2.2 - - - - - - -
21/09:00pm 13.0 E 3 5 1011.4 - 2.2 - - - - - - -
21/08:30pm 12.9 CALM 0 4 1011.1 - 2.2 - - - - - - -
21/08:00pm 13.0 E 4 6 1010.4 - 2.2 - - - - - - -
21/07:30pm 13.1 E 3 6 1010.1 - 2.2 - - - - - - -
21/07:00pm 13.2 E 3 5 1009.6 - 2.2 - - - - - - -
21/06:30pm 13.2 ESE 3 6 1009.0 - 2.2 - - - - - - -
21/06:00pm 13.2 SE 4 7 1008.4 - 2.2 - - - - - - -
21/05:30pm 13.1 SSE 5 9 1008.0 - 2.2 - - - - - - -
21/05:00pm 13.0 SE 7 11 1007.6 - 2.2 - - - - - - -
21/04:30pm 13.1 SSE 7 13 1007.1 - 2.2 - - - - - - -
21/04:00pm 12.9 SSE 6 13 1006.7 - 2.0 - - - - - - -
21/03:30pm 13.4 SSE 8 16 1006.3 - 1.2 - - - - - - -
21/03:00pm 13.2 S 9 17 1005.9 - 1.2 - - - - - - -
21/02:30pm 13.4 SSE 9 19 1005.5 - 1.0 - - - - - - -
21/02:00pm 13.9 S 8 16 1005.1 - 0.8 - - - - - - -
21/01:30pm 15.8 S 10 18 1004.5 - 0.2 - - - - - - -
21/01:00pm 15.9 S 8 13 1004.3 - 0.2 - - - - - - -
21/12:30pm 14.4 S 9 15 1004.1 - 0.2 - - - - - - -
21/12:00pm 15.4 S 11 17 1004.1 - 0.0 - - - - - - -
21/11:30am 19.1 W 6 11 1003.1 - 0.0 - - - - - - -
21/11:00am 20.2 W 7 14 1002.6 - 0.0 - - - - - - -
21/10:30am 20.6 W 6 10 1002.5 - 0.0 - - - - - - -
21/10:00am 20.3 W 6 11 1002.4 - 0.0 - - - - - - -
21/09:30am 19.2 WSW 6 10 1002.2 - 0.0 - - - - - - -
21/09:00am 18.2 W 7 15 1001.9 - 0.0 Fine Mostly cloudy 25 - - - -
21/08:30am 17.8 WSW 7 11 1001.6 - 0.0 - - - - - - -
21/08:00am 17.6 W 6 11 1001.6 - 0.0 - - - - - - -
21/07:30am 16.2 W 7 12 1001.3 - 0.0 - - - - - - -
21/07:00am 16.1 W 5 11 1001.2 - 0.0 - - - - - - -
21/06:30am 16.2 W 5 10 1000.6 - 0.0 - - - - - - -
21/06:00am 16.4 WNW 7 12 1000.7 - 0.0 - - - - - - -
21/05:30am 16.3 WNW 6 10 1000.4 - 0.0 - - - - - - -
21/05:00am 16.4 NW 7 13 1000.2 - 0.0 - - - - - - -
21/04:30am 16.4 NNW 8 13 999.5 - 0.0 - - - - - - -
21/04:00am 16.3 N 6 8 999.9 - 0.0 - - - - - - -
21/03:30am 16.4 NNE 5 6 1000.1 - 0.0 - - - - - - -
21/03:00am 16.4 N 6 8 1000.4 - 0.0 - - - - - - -
21/02:30am 16.5 N 8 11 1000.7 - 0.0 - - - - - - -
21/02:00am 16.6 N 7 11 1000.7 - 0.0 - - - - - - -
21/01:30am 16.6 N 6 7 1000.8 - 0.0 - - - - - - -
21/01:00am 16.4 NNW 5 9 1001.1 - 0.0 - - - - - - -
21/12:30am 16.6 NW 5 9 1001.2 - 0.0 - - - - - - -
21/12:00am 16.8 N 5 7 1001.7 - 0.0 - - - - - - -
 
Date/Time
EDT
Temp

°C
Wind Pressure Rain
since 9am
mm
Weather Cloud Vis
km
Sea
Height
m
Swell
Dir
 
Speed
knots
Gust
knots
hPa Trend Height
m
Period
s
Dir
20/11:30pm 16.9 W 6 15 1002.0 - 0.0 - - - - - - -
20/11:00pm 16.4 W 8 12 1001.9 - 0.0 - - - - - - -
20/10:30pm 16.4 WNW 7 13 1002.6 - 0.0 - - - - - - -
20/10:00pm 16.5 W 8 20 1002.5 - 0.0 - - - - - - -
20/09:30pm 16.1 W 5 12 1002.7 - 0.0 - - - - - - -
20/09:00pm 15.7 NW 9 16 1002.1 - 0.0 - - - - - - -
20/08:30pm 15.6 WNW 9 18 1002.7 - 0.0 - - - - - - -
20/08:00pm 16.2 NW 10 16 1002.8 - 0.0 - - - - - - -
20/07:30pm 17.1 WNW 9 19 1002.9 - 0.0 - - - - - - -
20/07:00pm 17.3 W 10 21 1003.1 - 0.0 - - - - - - -
20/06:30pm 17.6 W 11 25 1002.6 - 0.0 - - - - - - -
20/06:00pm 18.6 WNW 11 20 1002.9 - 0.0 - - - - - - -
20/05:30pm 19.4 WNW 14 29 1001.9 - 0.0 - - - - - - -
20/05:10pm 19.6 W 15 29 1001.7 - 0.0 - - - - - - -
20/05:00pm 19.8 W 13 25 1001.9 - 0.0 - - - - - - -
20/04:30pm 21.4 W 16 27 1001.5 - 0.0 - - - - - - -
20/04:28pm 21.4 W 15 26 1001.5 - 0.0 - - - - - - -
20/04:00pm 22.3 NW 14 30 1001.2 - 0.0 - - - - - - -

Other Formats:

Comma delimited format used in spreadsheet applications
http://www.bom.gov.au/fwo/IDT60701/IDT60701.95981.axf

JavaScript Object Notation format (JSON) in row-major order
http://www.bom.gov.au/fwo/IDT60701/IDT60701.95981.json